Airfield :
LOGIN :

Register | Disclaimer

   EN    FR    IT 

 










Legend :    VFR   Marginal VFR   IFR   Intensive IFR   Very Intensive IFR
Visi :
Ceiling :
>= 8 km
>= 3000ft
5 to 8 km
1000 to 3000 ft
1500m to 5 km
500 to 1000 ft
800 to 1500m
200 to 500 ft
< 800m
< 200 ft
Symbols :   Thunderstorms  Fog  Heavy snow  Heavy precipitations  Wind > 20 kt
SIGMETs :     Misc.  Thunderstorms  Icing  Turbulence  Mountain Waves  Volcanic Ashes







- Airport Elevation : 202 ft
- IATA code : LGW
- Download approach charts


EGKK - London Gatwick

CURRENT METAR :
  • 240720Z 21007KT 3200 BR BKN003 15/15 Q1018

EXPIRED METARs :
  • 240650Z 21007KT 170V230 4000 BR BKN003 15/15 Q1018
  • 240620Z 21006KT 3500 BR BKN004 15/15 Q1018
  • 240550Z 21006KT 9999 BKN004 15/15 Q1018
  • 240520Z 22007KT 9999 SCT006 BKN009 15/15 Q1018
  • 240450Z 23007KT 9999 FEW004 BKN009 15/15 Q1018
  • 240420Z 23009KT 6000 OVC003 15/15 Q1018

TAF TAF EGKK
Valid from the 24 at 06:00 until the 25 at 12:00 UTC


240501Z 2406/2512 22012KT 9999 BKN012
TEMPO 2406/2408 6000 OVC003
PROB30
TEMPO 2406/2408 3000 BR RADZ
PROB30
TEMPO 2408/2410 SCT012
TEMPO 2410/2506 SCT014
PROB30
TEMPO 2508/2512 6000 RADZ BKN008
No reported NOTAMs for that airfield.



MET'MAP, your aeronautical weather chart ! - Copyright ORBIFLY December 2007 - Disclaimer

ORBIFLY MET'MAP TEAM :

Programming & Development : Alexandra Zaïnal
Concept & Development : Baudouin d'Aumeries
Co-Development & Prog : Marc-Olivier Méhu
Technical & hardware support : Manuel Goepfert

Contact : metmap@orbifly.com




SOURCES & CREDITS :

   NOAA